createdAt,value
2022-11-08T17:57:21.887Z,94641.72
2022-11-08T17:59:48.442Z,94624.09
2022-11-08T18:02:15.085Z,94632.66
2022-11-08T18:04:41.583Z,94640.56
2022-11-08T18:07:08.436Z,94631.84
2022-11-08T18:09:34.890Z,94628.78
2022-11-08T18:12:01.367Z,94640.06
2022-11-08T18:14:29.056Z,94619.81
2022-11-08T18:16:55.884Z,94628.94
2022-11-08T18:19:22.402Z,94618.34
2022-11-08T18:21:48.918Z,94619.91
2022-11-08T18:24:15.470Z,94626.22
2022-11-08T18:26:41.873Z,94617.88
2022-11-08T18:29:08.525Z,94625.06
2022-11-08T18:31:35.042Z,94620.22
2022-11-08T18:34:01.507Z,94606.34
2022-11-08T18:36:29.102Z,94611.53
2022-11-08T18:38:57.428Z,94609.47
2022-11-08T18:41:28.154Z,94598.59
2022-11-08T18:43:55.542Z,94606.56
2022-11-08T18:46:23.540Z,94590.84
2022-11-08T18:48:50.443Z,94588.59
2022-11-08T18:51:18.285Z,94588.72
2022-11-08T18:53:44.745Z,94577.31
2022-11-08T18:56:12.583Z,94594.06
2022-11-08T18:58:40.050Z,94583.31
2022-11-08T19:01:07.971Z,94574.56
2022-11-08T19:03:35.545Z,94584.78
2022-11-08T19:06:02.073Z,94573.97
2022-11-08T19:08:30.582Z,94574.97
2022-11-08T19:10:58.434Z,94575.56
2022-11-08T19:13:25.768Z,94567.03
2022-11-08T19:15:56.092Z,94564.53
2022-11-08T19:18:22.633Z,94566.28
2022-11-08T19:20:57.999Z,94548.41
2022-11-08T19:23:26.003Z,94550.66
2022-11-08T19:25:57.101Z,94550.47
2022-11-08T19:28:23.966Z,94538.78
2022-11-08T19:30:53.750Z,94529.84
2022-11-08T19:33:22.398Z,94541.59
2022-11-08T19:35:49.075Z,94519.81
2022-11-08T19:38:15.568Z,94529.91
2022-11-08T19:40:42.383Z,94540.09
2022-11-08T19:43:08.967Z,94518.56
2022-11-08T19:45:35.426Z,94519.88
2022-11-08T19:48:02.054Z,94523.81
2022-11-08T19:50:28.846Z,94505.41
2022-11-08T19:52:55.597Z,94522.22
2022-11-08T19:55:22.063Z,94512.13
2022-11-08T19:57:49.221Z,94512.00
2022-11-08T20:00:16.413Z,94521.88
2022-11-08T20:02:42.874Z,94512.13
2022-11-08T20:05:09.847Z,94507.00
2022-11-08T20:07:36.774Z,94523.03
2022-11-08T20:10:03.517Z,94506.22
2022-11-08T20:12:33.036Z,94510.94
2022-11-08T20:14:59.571Z,94514.94
2022-11-08T20:17:29.394Z,94504.19
2022-11-08T20:19:55.847Z,94514.81
2022-11-08T20:22:22.471Z,94507.53
2022-11-08T20:24:48.924Z,94500.66
2022-11-08T20:27:17.006Z,94504.78
2022-11-08T20:29:43.467Z,94502.13
2022-11-08T20:32:11.489Z,94492.50
2022-11-08T20:34:39.571Z,94490.50
2022-11-08T20:37:10.647Z,94491.59
2022-11-08T20:39:37.127Z,94483.28
2022-11-08T20:42:03.611Z,94498.25
2022-11-08T20:44:30.038Z,94487.97
2022-11-08T20:46:56.468Z,94488.34
2022-11-08T20:49:22.891Z,94494.38
2022-11-08T20:51:49.303Z,94489.50
2022-11-08T20:54:16.743Z,94480.56
2022-11-08T20:56:44.235Z,94483.16
2022-11-08T20:59:13.215Z,94472.13
2022-11-08T21:01:39.806Z,94467.88
2022-11-08T21:04:06.450Z,94480.44
2022-11-08T21:06:35.936Z,94458.53
2022-11-08T21:09:23.370Z,94459.47
2022-11-08T21:11:49.903Z,94451.00
2022-11-08T21:14:16.528Z,94434.47
2022-11-08T21:17:14.638Z,94435.13
2022-11-08T21:19:29.440Z,94430.75
2022-11-08T21:22:14.975Z,94429.06
2022-11-08T21:24:43.718Z,94441.72
2022-11-08T21:27:10.229Z,94416.72
2022-11-08T21:29:36.677Z,94425.25
2022-11-08T21:32:03.316Z,94423.13
2022-11-08T21:34:32.531Z,94403.91
2022-11-08T21:37:01.444Z,94411.41
2022-11-08T21:39:27.855Z,94405.72
2022-11-08T21:41:54.269Z,94411.19
2022-11-08T21:44:20.953Z,94416.03
2022-11-08T21:46:47.615Z,94416.88
2022-11-08T21:49:16.311Z,94395.72
2022-11-08T21:51:42.755Z,94401.41
2022-11-08T21:54:09.230Z,94397.81
2022-11-08T21:56:35.804Z,94380.59
2022-11-08T21:59:03.357Z,94382.09
2022-11-08T22:01:32.030Z,94366.41
2022-11-08T22:03:59.384Z,94367.94
2022-11-08T22:06:26.550Z,94363.50
2022-11-08T22:08:55.290Z,94353.47
2022-11-08T22:11:21.755Z,94358.63
2022-11-08T22:13:48.276Z,94351.78
2022-11-08T22:16:14.798Z,94339.03
2022-11-08T22:21:40.759Z,94339.38
2022-11-08T22:24:10.974Z,94318.09
2022-11-08T22:26:39.894Z,94316.88
2022-11-08T22:29:07.601Z,94314.34
2022-11-08T22:31:34.081Z,94298.81
2022-11-08T22:34:01.238Z,94308.34
2022-11-08T22:36:28.107Z,94293.41
2022-11-08T22:38:55.187Z,94284.94
2022-11-08T22:41:22.074Z,94297.53
2022-11-08T22:43:48.919Z,94284.03
2022-11-08T22:46:15.438Z,94293.06
2022-11-08T22:48:42.021Z,94292.88
2022-11-08T22:51:08.870Z,94282.41
2022-11-08T22:53:35.768Z,94288.00
2022-11-08T22:56:05.586Z,94292.47
2022-11-08T22:58:36.502Z,94283.56
2022-11-08T23:01:03.068Z,94275.31
2022-11-08T23:03:29.615Z,94277.25
2022-11-08T23:05:57.161Z,94249.84
2022-11-08T23:08:24.620Z,94265.34
2022-11-08T23:11:10.254Z,94250.56
2022-11-08T23:13:55.487Z,94237.84
2022-11-08T23:16:37.942Z,94251.66
2022-11-08T23:19:25.319Z,94237.44
2022-11-08T23:22:11.155Z,94240.66
2022-11-08T23:24:37.637Z,94223.78
2022-11-08T23:27:23.864Z,94221.78
2022-11-08T23:30:09.067Z,94219.13
2022-11-08T23:32:35.545Z,94204.13
2022-11-08T23:35:02.309Z,94193.31
2022-11-08T23:37:29.623Z,94199.00
2022-11-08T23:40:16.520Z,94184.00
2022-11-08T23:43:01.465Z,94175.47
2022-11-08T23:45:30.227Z,94177.94
2022-11-08T23:47:58.763Z,94155.03
2022-11-08T23:50:25.207Z,94162.38
2022-11-08T23:52:53.898Z,94154.25
2022-11-08T23:55:20.354Z,94134.91
2022-11-08T23:57:48.895Z,94150.78
